Terminal Aerodrome Forecast
Issued by NWS Cleveland, OH

Home | Current Version | Previous Version | Text Only | Print | Product List | Glossary Off
Versions: 1 2 3 4 5 6 7 8 9 10 11 12 13 14 15 16 17 18 19 20 21 22 23 24 25 26 27 28 29 30

000
FTUS41 KCLE 290804 AAB
TAFCLE
TAF AMD
KCLE 290804Z 2908/3012 VRB03KT P6SM SCT016 BKN200
      TEMPO 2908/2912 BKN012
     FM291700 01008KT P6SM SCT050 BKN150
     FM300200 VRB04KT P6SM SCT060 BKN150=

USA.gov is the U.S. government's official web portal to all federal, state and local government web resources and services.